createdAt,value
2023-05-17T00:00:39.683Z,36.3789
2023-05-17T00:01:40.779Z,36.4112
2023-05-17T00:02:41.969Z,36.4017
2023-05-17T00:03:42.992Z,36.3730
2023-05-17T00:04:44.116Z,36.3398
2023-05-17T00:05:45.208Z,36.3212
2023-05-17T00:06:46.276Z,36.2487
2023-05-17T00:07:47.403Z,36.1668
2023-05-17T00:08:48.492Z,36.0930
2023-05-17T00:09:49.568Z,36.0769
2023-05-17T00:10:50.674Z,36.0716
2023-05-17T00:11:51.792Z,36.0708
2023-05-17T00:12:52.874Z,36.1090
2023-05-17T00:13:53.976Z,36.1738
2023-05-17T00:14:55.078Z,36.2176
2023-05-17T00:15:56.147Z,36.1960
2023-05-17T00:16:57.287Z,36.2552
2023-05-17T00:17:58.516Z,36.3170
2023-05-17T00:18:59.516Z,36.3189
2023-05-17T00:20:00.577Z,36.2587
2023-05-17T00:21:01.657Z,36.2211
2023-05-17T00:22:02.757Z,36.1777
2023-05-17T00:23:03.845Z,36.1442
2023-05-17T00:24:04.957Z,36.0962
2023-05-17T00:25:06.026Z,36.0782
2023-05-17T00:26:07.143Z,36.0728
2023-05-17T00:27:08.262Z,36.0500
2023-05-17T00:28:09.333Z,36.0167
2023-05-17T00:29:10.429Z,35.9877
2023-05-17T00:30:11.506Z,36.1017
2023-05-17T00:31:12.624Z,36.1258
2023-05-17T00:32:13.716Z,36.0920
2023-05-17T00:33:14.876Z,35.9960
2023-05-17T00:34:15.905Z,35.9302
2023-05-17T00:35:17.069Z,35.8885
2023-05-17T00:36:18.087Z,35.9161
2023-05-17T00:37:19.194Z,35.8447
2023-05-17T00:38:20.283Z,35.8304
2023-05-17T00:39:21.371Z,35.8839
2023-05-17T00:40:22.472Z,35.7882
2023-05-17T00:41:23.582Z,35.7122
2023-05-17T00:42:24.692Z,35.6861
2023-05-17T00:43:25.788Z,35.6524
2023-05-17T00:44:26.865Z,35.6220
2023-05-17T00:45:28.208Z,35.5976
2023-05-17T00:46:29.076Z,35.6694
2023-05-17T00:47:30.218Z,35.6093
2023-05-17T00:48:31.531Z,35.5888
2023-05-17T00:49:32.360Z,35.6083
2023-05-17T00:50:33.586Z,35.5901
2023-05-17T00:51:34.549Z,35.5630
2023-05-17T00:52:35.659Z,35.4923
2023-05-17T00:53:36.739Z,35.4434
2023-05-17T00:54:37.852Z,35.4302
2023-05-17T00:55:38.930Z,35.3802
2023-05-17T00:56:40.025Z,35.3511
2023-05-17T00:57:41.126Z,35.3629
2023-05-17T00:58:42.219Z,35.3949
2023-05-17T00:59:43.333Z,35.3169
2023-05-17T01:00:44.409Z,35.2932
2023-05-17T01:01:45.516Z,35.2477
2023-05-17T01:02:46.678Z,35.1811
2023-05-17T01:03:47.917Z,35.0929
2023-05-17T01:04:48.868Z,35.0427
2023-05-17T01:05:49.932Z,35.0434
2023-05-17T01:06:51.000Z,35.0825
2023-05-17T01:07:52.082Z,35.0649
2023-05-17T01:08:53.176Z,35.0564
2023-05-17T01:09:54.290Z,35.0538
2023-05-17T01:10:55.385Z,35.0565
2023-05-17T01:11:56.483Z,35.0002
2023-05-17T01:12:57.559Z,34.9577
2023-05-17T01:13:58.662Z,35.0348
2023-05-17T01:14:59.806Z,35.1121
2023-05-17T01:16:00.872Z,35.1846
2023-05-17T01:17:01.981Z,35.1603
2023-05-17T01:18:03.161Z,35.0767
2023-05-17T01:19:04.361Z,35.0018
2023-05-17T01:20:05.337Z,34.9549
2023-05-17T01:21:06.352Z,34.9330
2023-05-17T01:22:07.460Z,34.8960
2023-05-17T01:23:08.547Z,34.8774
2023-05-17T01:24:09.639Z,34.9991
2023-05-17T01:25:10.754Z,35.0837
2023-05-17T01:26:11.840Z,34.9996
2023-05-17T01:27:12.933Z,34.9325
2023-05-17T01:28:14.014Z,34.9419
2023-05-17T01:29:15.112Z,34.9680
2023-05-17T01:30:16.238Z,34.9572
2023-05-17T01:31:17.330Z,34.8961
2023-05-17T01:32:18.426Z,34.7925
2023-05-17T01:33:19.625Z,34.7351
2023-05-17T01:34:20.652Z,34.7350
2023-05-17T01:35:21.725Z,34.6723
2023-05-17T01:36:22.817Z,34.6228
2023-05-17T01:37:23.889Z,34.6326
2023-05-17T01:38:24.999Z,34.6180
2023-05-17T01:39:26.100Z,34.5788
2023-05-17T01:40:27.208Z,34.5752
2023-05-17T01:41:28.284Z,34.5737
2023-05-17T01:42:29.383Z,34.6002
2023-05-17T01:43:30.497Z,34.5594
2023-05-17T01:44:33.103Z,34.5389
2023-05-17T01:45:32.746Z,34.5195
2023-05-17T01:46:33.775Z,34.5409
2023-05-17T01:47:34.911Z,34.5868
2023-05-17T01:48:36.015Z,34.5606
2023-05-17T01:49:37.154Z,34.6299
2023-05-17T01:50:38.172Z,34.5710
2023-05-17T01:51:39.293Z,34.5485
2023-05-17T01:52:40.395Z,34.5188
2023-05-17T01:53:41.476Z,34.4827
2023-05-17T01:54:42.565Z,34.4659
2023-05-17T01:55:43.676Z,34.4058
2023-05-17T01:56:44.796Z,34.3627
2023-05-17T01:57:45.870Z,34.3452
2023-05-17T01:58:46.977Z,34.3036
2023-05-17T01:59:48.092Z,34.3175
2023-05-17T02:00:49.209Z,34.3033
2023-05-17T02:01:50.276Z,34.2729
2023-05-17T02:02:51.380Z,34.2766
2023-05-17T02:03:52.496Z,34.2320
2023-05-17T02:04:53.651Z,34.1696
2023-05-17T02:06:02.403Z,34.1213
2023-05-17T02:06:55.740Z,34.1571
2023-05-17T02:07:56.839Z,34.1501
2023-05-17T02:08:57.928Z,34.1955
2023-05-17T02:09:59.038Z,34.1955
2023-05-17T02:11:00.144Z,34.2755
2023-05-17T02:12:01.258Z,34.3401
2023-05-17T02:13:02.372Z,34.3370
2023-05-17T02:14:03.451Z,34.3160
2023-05-17T02:15:04.544Z,34.2464
2023-05-17T02:16:05.674Z,34.2909
2023-05-17T02:17:06.774Z,34.3525
2023-05-17T02:18:07.953Z,34.4130
2023-05-17T02:19:09.018Z,34.3822
2023-05-17T02:20:10.142Z,34.3193
2023-05-17T02:21:11.199Z,34.3503
2023-05-17T02:22:12.304Z,34.3109
2023-05-17T02:23:13.398Z,34.2519
2023-05-17T02:24:14.537Z,34.2121
2023-05-17T02:25:15.622Z,34.1845
2023-05-17T02:26:16.745Z,34.1578
2023-05-17T02:27:17.826Z,34.1058
2023-05-17T02:28:18.948Z,34.0550
2023-05-17T02:29:20.055Z,34.0372
2023-05-17T02:30:21.166Z,34.0418
2023-05-17T02:31:22.283Z,34.0394
2023-05-17T02:32:23.430Z,33.9703
2023-05-17T02:33:24.567Z,33.9374
2023-05-17T02:34:25.592Z,33.9242
2023-05-17T02:35:27.077Z,33.8986
2023-05-17T02:36:27.819Z,33.8572
2023-05-17T02:37:28.902Z,33.9013
2023-05-17T02:38:30.049Z,33.9505
2023-05-17T02:39:31.130Z,33.9354
2023-05-17T02:40:32.236Z,34.0072
2023-05-17T02:41:33.351Z,33.9661
2023-05-17T02:42:34.466Z,33.9482
2023-05-17T02:43:35.549Z,33.9496
2023-05-17T02:44:36.677Z,33.8856
2023-05-17T02:45:37.801Z,33.8441
2023-05-17T02:46:38.893Z,33.8165
2023-05-17T02:47:40.033Z,33.7722
2023-05-17T02:48:41.102Z,33.7670
2023-05-17T02:49:42.202Z,33.7734
2023-05-17T02:50:43.326Z,33.7466
2023-05-17T02:51:44.424Z,33.7135
2023-05-17T02:52:45.529Z,33.6588
2023-05-17T02:53:46.739Z,33.5937
2023-05-17T02:54:47.815Z,33.5553
2023-05-17T02:55:48.913Z,33.5631
2023-05-17T02:56:50.053Z,33.5756
2023-05-17T02:57:51.134Z,33.6369
2023-05-17T02:58:52.249Z,33.6528
2023-05-17T02:59:53.334Z,33.5710
2023-05-17T03:00:54.444Z,33.5078
2023-05-17T03:01:55.579Z,33.5774
2023-05-17T03:02:56.740Z,33.6402
2023-05-17T03:03:57.916Z,33.6398
2023-05-17T03:04:58.866Z,33.5659
2023-05-17T03:06:00.074Z,33.5645
2023-05-17T03:07:01.108Z,33.5554
2023-05-17T03:08:02.213Z,33.5454
2023-05-17T03:09:03.302Z,33.5357
2023-05-17T03:10:04.406Z,33.4545
2023-05-17T03:11:05.535Z,33.4332
2023-05-17T03:12:06.770Z,33.3934
2023-05-17T03:13:07.726Z,33.3591
2023-05-17T03:14:08.858Z,33.4271
2023-05-17T03:15:10.005Z,33.4015
2023-05-17T03:16:11.090Z,33.3867
2023-05-17T03:17:12.180Z,33.4864
2023-05-17T03:18:13.419Z,33.5139
2023-05-17T03:19:14.454Z,33.5346
2023-05-17T03:20:15.535Z,33.4832
2023-05-17T03:21:16.672Z,33.4421
2023-05-17T03:22:17.741Z,33.4919
2023-05-17T03:23:18.830Z,33.4665
2023-05-17T03:24:19.961Z,33.3916
2023-05-17T03:25:21.040Z,33.4147
2023-05-17T03:26:22.147Z,33.3959
2023-05-17T03:27:23.326Z,33.4761
2023-05-17T03:28:24.389Z,33.5036
2023-05-17T03:29:25.478Z,33.4618
2023-05-17T03:30:26.635Z,33.4368
2023-05-17T03:31:27.708Z,33.3877
2023-05-17T03:32:28.869Z,33.3869
2023-05-17T03:33:30.053Z,33.3734
2023-05-17T03:34:31.035Z,33.3367
2023-05-17T03:35:32.125Z,33.3419
2023-05-17T03:36:33.272Z,33.3782
2023-05-17T03:37:34.383Z,33.4269
2023-05-17T03:38:35.471Z,33.4892
2023-05-17T03:39:36.566Z,33.4600
2023-05-17T03:40:37.695Z,33.4741
2023-05-17T03:41:38.803Z,33.5147
2023-05-17T03:42:39.933Z,33.5148
2023-05-17T03:43:41.023Z,33.4833
2023-05-17T03:44:42.112Z,33.4673
2023-05-17T03:45:43.223Z,33.3987
2023-05-17T03:46:44.338Z,33.3299
2023-05-17T03:47:45.484Z,33.2733
2023-05-17T03:48:46.577Z,33.2393
2023-05-17T03:49:47.664Z,33.2154
2023-05-17T03:50:48.789Z,33.2437
2023-05-17T03:51:50.000Z,33.1956
2023-05-17T03:52:51.009Z,33.2343
2023-05-17T03:53:52.094Z,33.3044
2023-05-17T03:54:53.205Z,33.3256
2023-05-17T03:55:54.339Z,33.3678
2023-05-17T03:56:55.441Z,33.3518
2023-05-17T03:57:56.543Z,33.3533
2023-05-17T03:58:57.645Z,33.3441
2023-05-17T03:59:58.762Z,33.2923
2023-05-17T04:00:59.853Z,33.2733
2023-05-17T04:02:00.956Z,33.2372
2023-05-17T04:03:02.167Z,33.2272
2023-05-17T04:04:03.200Z,33.2122
2023-05-17T04:05:04.333Z,33.2533
2023-05-17T04:06:05.388Z,33.2798
2023-05-17T04:07:06.579Z,33.3123
2023-05-17T04:08:07.623Z,33.3401
2023-05-17T04:09:08.706Z,33.3614
2023-05-17T04:10:09.846Z,33.3550
2023-05-17T04:11:10.917Z,33.3620
2023-05-17T04:12:12.060Z,33.3929
2023-05-17T04:13:13.206Z,33.3659
2023-05-17T04:14:14.281Z,33.3661
2023-05-17T04:15:15.354Z,33.3901
2023-05-17T04:16:16.469Z,33.3874
2023-05-17T04:17:17.580Z,33.3687
2023-05-17T04:18:18.801Z,33.3957
2023-05-17T04:19:19.871Z,33.4006
2023-05-17T04:20:20.921Z,33.3623
2023-05-17T04:21:22.016Z,33.3806
2023-05-17T04:22:23.169Z,33.4147
2023-05-17T04:23:24.241Z,33.4503
2023-05-17T04:24:25.349Z,33.4710
2023-05-17T04:25:26.522Z,33.4549
2023-05-17T04:26:27.537Z,33.4450
2023-05-17T04:27:28.732Z,33.3999
2023-05-17T04:28:29.772Z,33.4025
2023-05-17T04:29:30.853Z,33.4038
2023-05-17T04:30:31.997Z,33.4537
2023-05-17T04:31:33.069Z,33.4227
2023-05-17T04:32:34.274Z,33.4921
2023-05-17T04:33:35.325Z,33.5210
2023-05-17T04:34:36.394Z,33.4964
2023-05-17T04:35:37.489Z,33.5128
2023-05-17T04:36:38.594Z,33.5809
2023-05-17T04:37:39.899Z,33.6216
2023-05-17T04:38:40.846Z,33.5642
2023-05-17T04:39:41.911Z,33.5654
2023-05-17T04:40:43.037Z,33.5769
2023-05-17T04:41:44.138Z,33.5426
2023-05-17T04:42:45.255Z,33.5398
2023-05-17T04:43:46.353Z,33.5986
2023-05-17T04:44:47.465Z,33.5981
2023-05-17T04:45:48.561Z,33.6014
2023-05-17T04:46:49.669Z,33.5849
2023-05-17T04:47:50.825Z,33.5703
2023-05-17T04:48:51.955Z,33.5527
2023-05-17T04:49:53.008Z,33.5769
2023-05-17T04:50:54.122Z,33.5826
2023-05-17T04:51:55.193Z,33.5272
2023-05-17T04:52:56.396Z,33.4781
2023-05-17T04:53:57.423Z,33.5102
2023-05-17T04:54:58.551Z,33.5355
2023-05-17T04:55:59.659Z,33.5663
2023-05-17T04:57:00.756Z,33.5975
2023-05-17T04:58:01.865Z,33.6278
2023-05-17T04:59:02.995Z,33.6757
2023-05-17T05:00:04.080Z,33.7347
2023-05-17T05:01:05.189Z,33.7080
2023-05-17T05:02:06.376Z,33.7407
2023-05-17T05:03:07.502Z,33.7658
2023-05-17T05:04:08.591Z,33.7986
2023-05-17T05:05:09.673Z,33.7390
2023-05-17T05:06:10.734Z,33.7299
2023-05-17T05:07:11.824Z,33.8199
2023-05-17T05:08:13.012Z,33.8410
2023-05-17T05:09:14.054Z,33.8167
2023-05-17T05:10:15.294Z,33.8381
2023-05-17T05:11:16.275Z,33.8631
2023-05-17T05:12:17.382Z,33.8994
2023-05-17T05:13:18.473Z,33.9624
2023-05-17T05:14:19.601Z,33.9588
2023-05-17T05:15:20.730Z,33.9675
2023-05-17T05:16:21.799Z,33.9172
2023-05-17T05:17:22.988Z,33.9163
2023-05-17T05:18:24.055Z,33.8974
2023-05-17T05:19:25.145Z,33.8516
2023-05-17T05:20:27.933Z,33.8285
2023-05-17T05:21:27.331Z,33.9422
2023-05-17T05:22:28.446Z,33.9912
2023-05-17T05:23:29.664Z,33.9756
2023-05-17T05:24:30.668Z,33.8676
2023-05-17T05:25:31.770Z,33.7764
2023-05-17T05:26:32.883Z,33.7162
2023-05-17T05:27:33.990Z,33.7469
2023-05-17T05:28:35.120Z,33.7351
2023-05-17T05:29:36.201Z,33.8040
2023-05-17T05:30:37.323Z,33.7933
2023-05-17T05:31:38.435Z,33.7888
2023-05-17T05:32:39.572Z,33.8298
2023-05-17T05:33:40.698Z,33.8352
2023-05-17T05:34:41.727Z,33.8490
2023-05-17T05:35:42.854Z,33.8693
2023-05-17T05:36:43.951Z,33.9165
2023-05-17T05:37:45.076Z,34.0128
2023-05-17T05:38:46.180Z,34.1633
2023-05-17T05:39:47.286Z,34.2765
2023-05-17T05:40:48.383Z,34.4939
2023-05-17T05:41:49.521Z,34.7829
2023-05-17T05:42:50.596Z,35.3624
2023-05-17T05:43:51.692Z,35.4720
2023-05-17T05:44:52.815Z,35.5459
2023-05-17T05:45:53.915Z,35.7359
2023-05-17T05:46:55.010Z,35.9350
2023-05-17T05:47:56.221Z,36.0153
2023-05-17T05:48:57.274Z,36.0992
2023-05-17T05:49:58.352Z,36.1010
2023-05-17T05:54:54.480Z,36.3219
2023-05-17T05:55:47.848Z,36.2531
2023-05-17T05:56:48.988Z,36.3734
2023-05-17T05:57:50.090Z,36.3827
2023-05-17T05:58:51.203Z,36.3706
2023-05-17T05:59:52.331Z,36.4487
2023-05-17T06:00:53.467Z,36.3409
2023-05-17T06:01:54.556Z,36.2216
2023-05-17T06:02:55.695Z,36.0770
2023-05-17T06:03:56.813Z,36.0117
2023-05-17T06:04:57.930Z,35.9428
2023-05-17T06:05:59.138Z,35.9464
2023-05-17T06:07:00.215Z,36.0421
2023-05-17T06:08:01.300Z,35.9983
2023-05-17T06:09:02.417Z,35.9921
2023-05-17T06:10:03.646Z,36.0783
2023-05-17T06:11:04.620Z,35.9880
2023-05-17T06:12:05.742Z,36.0020
2023-05-17T06:13:06.884Z,36.0041
2023-05-17T06:14:07.971Z,36.0083
2023-05-17T06:15:09.102Z,35.9921
2023-05-17T06:16:10.208Z,35.8996
2023-05-17T06:17:11.312Z,35.7967
2023-05-17T06:18:12.539Z,35.7664
2023-05-17T06:19:13.633Z,35.7190
2023-05-17T06:20:14.666Z,35.6569
2023-05-17T06:21:15.800Z,35.5481
2023-05-17T06:22:16.894Z,35.3890
2023-05-17T06:23:18.013Z,35.2844
2023-05-17T06:24:19.138Z,35.2069
2023-05-17T06:25:20.316Z,35.1133
2023-05-17T06:26:21.376Z,35.1347
2023-05-17T06:27:22.484Z,35.1681
2023-05-17T06:28:23.592Z,35.1541
2023-05-17T06:29:24.714Z,35.1086
2023-05-17T06:30:25.835Z,35.1436
2023-05-17T06:31:26.958Z,35.2472
2023-05-17T06:32:28.078Z,35.2855
2023-05-17T06:33:29.191Z,35.2876
2023-05-17T06:34:30.297Z,35.2677
2023-05-17T06:35:37.529Z,35.1635
2023-05-17T06:36:34.220Z,35.1378
2023-05-17T06:37:33.618Z,35.1560
2023-05-17T06:38:34.912Z,35.2272
2023-05-17T06:39:35.830Z,35.1615
2023-05-17T06:40:37.368Z,35.0805
2023-05-17T06:41:38.078Z,34.9928
2023-05-17T06:42:39.166Z,34.9119
2023-05-17T06:43:40.306Z,34.7909
2023-05-17T06:44:41.391Z,34.8106
2023-05-17T06:45:42.532Z,34.8191
2023-05-17T06:46:43.633Z,34.7716
2023-05-17T06:47:44.781Z,34.7255
2023-05-17T06:48:48.010Z,34.6550
2023-05-17T06:49:46.960Z,34.6719
2023-05-17T06:50:48.080Z,34.6409
2023-05-17T06:51:49.198Z,34.6297
2023-05-17T06:52:50.323Z,34.5204
2023-05-17T06:53:51.433Z,34.5729
2023-05-17T06:54:52.524Z,34.6053
2023-05-17T06:55:53.873Z,34.5829
2023-05-17T06:56:54.774Z,34.5400
2023-05-17T06:57:55.902Z,34.4992
2023-05-17T06:58:57.007Z,34.4348
2023-05-17T06:59:58.106Z,34.4894
2023-05-17T07:00:59.229Z,34.5572
2023-05-17T07:02:00.360Z,34.4984
2023-05-17T07:03:01.691Z,34.3604
2023-05-17T07:04:02.698Z,34.3022
2023-05-17T07:05:03.698Z,34.3523
2023-05-17T07:06:04.813Z,34.5181
2023-05-17T07:07:05.949Z,34.6349
2023-05-17T07:08:07.067Z,34.8232
2023-05-17T07:09:08.159Z,35.0629
2023-05-17T07:10:09.265Z,35.1624
2023-05-17T07:11:10.477Z,35.1603
2023-05-17T07:12:11.521Z,34.9851
2023-05-17T07:13:12.641Z,34.8375
2023-05-17T07:14:13.751Z,34.7813
2023-05-17T07:15:14.876Z,34.6919
2023-05-17T07:16:16.049Z,34.6372
2023-05-17T07:17:17.136Z,34.6328
2023-05-17T07:18:18.260Z,34.6381
2023-05-17T07:19:19.412Z,34.6649
2023-05-17T07:20:20.438Z,34.6651
2023-05-17T07:21:21.552Z,34.6740
2023-05-17T07:22:22.709Z,34.6869
2023-05-17T07:23:24.371Z,34.6769
2023-05-17T07:24:24.905Z,34.6767
2023-05-17T07:25:26.159Z,34.6261
2023-05-17T07:26:27.495Z,34.6650
2023-05-17T07:27:28.237Z,34.6108
2023-05-17T07:28:29.348Z,34.6883
2023-05-17T07:29:30.462Z,34.7324
2023-05-17T07:30:31.582Z,34.8221
2023-05-17T07:31:32.689Z,34.8061
2023-05-17T07:32:33.856Z,34.7151
2023-05-17T07:33:34.922Z,34.7065
2023-05-17T07:34:36.097Z,34.6556
2023-05-17T07:35:37.143Z,34.5721
2023-05-17T07:36:38.292Z,34.5174
2023-05-17T07:37:39.399Z,34.4720
2023-05-17T07:38:40.468Z,34.5015
2023-05-17T07:39:41.584Z,34.4593
2023-05-17T07:40:42.699Z,34.4148
2023-05-17T07:41:43.903Z,34.3732
2023-05-17T07:42:44.935Z,34.3426
2023-05-17T07:43:46.039Z,34.3022
2023-05-17T07:44:47.141Z,34.2727
2023-05-17T07:45:48.264Z,34.2298
2023-05-17T07:46:49.420Z,34.2324
2023-05-17T07:47:50.604Z,34.2860
2023-05-17T07:48:51.756Z,34.3534
2023-05-17T07:49:52.741Z,34.3868
2023-05-17T07:50:53.811Z,34.3154
2023-05-17T07:51:54.958Z,34.2776
2023-05-17T07:52:56.048Z,34.2277
2023-05-17T07:53:57.157Z,34.1077
2023-05-17T07:54:58.283Z,34.0124
2023-05-17T07:55:59.386Z,33.8588
2023-05-17T07:57:00.886Z,33.7448
2023-05-17T07:58:01.635Z,33.7086
2023-05-17T07:59:02.784Z,33.7402
2023-05-17T08:00:03.854Z,33.7003
2023-05-17T08:01:04.950Z,33.5942
2023-05-17T08:02:06.081Z,33.4459
2023-05-17T08:03:07.235Z,33.3151
2023-05-17T08:04:08.318Z,33.1559
2023-05-17T08:05:09.402Z,33.1422
2023-05-17T08:06:10.626Z,33.1749
2023-05-17T08:07:11.649Z,33.1469
2023-05-17T08:08:12.740Z,33.1310
2023-05-17T08:09:13.880Z,33.1083
2023-05-17T08:10:14.981Z,33.0654
2023-05-17T08:11:16.099Z,33.0282
2023-05-17T08:12:17.440Z,32.9987
2023-05-17T08:13:18.318Z,33.0211
2023-05-17T08:14:19.431Z,33.1938
2023-05-17T08:15:20.539Z,33.2308
2023-05-17T08:16:21.660Z,33.1949
2023-05-17T08:17:22.787Z,33.0176
2023-05-17T08:18:24.045Z,32.8829
2023-05-17T08:19:25.066Z,32.7921
2023-05-17T08:20:26.093Z,32.7420
2023-05-17T08:21:27.239Z,32.7950
2023-05-17T08:22:28.332Z,32.8523
2023-05-17T08:23:29.476Z,32.8407
2023-05-17T08:24:30.552Z,32.8081
2023-05-17T08:25:31.856Z,32.8315
2023-05-17T08:26:32.766Z,32.8429
2023-05-17T08:27:33.890Z,32.7907
2023-05-17T08:28:35.008Z,32.7199
2023-05-17T08:29:37.207Z,32.6639
2023-05-17T08:30:37.230Z,32.5553
2023-05-17T08:31:38.392Z,32.4760
2023-05-17T08:32:39.480Z,32.4454
2023-05-17T08:33:40.632Z,32.4551
2023-05-17T08:34:41.655Z,32.4101
2023-05-17T08:35:42.757Z,32.3706
2023-05-17T08:36:43.941Z,32.3170
2023-05-17T08:37:44.977Z,32.2813
2023-05-17T08:38:46.086Z,32.2154
2023-05-17T08:39:47.276Z,32.0670
2023-05-17T08:40:48.330Z,31.9226
2023-05-17T08:41:49.410Z,31.8956
2023-05-17T08:42:50.541Z,31.8980
2023-05-17T08:43:51.720Z,31.7989
2023-05-17T08:44:52.758Z,31.8195
2023-05-17T08:45:53.854Z,31.8054
2023-05-17T08:46:54.965Z,31.7640
2023-05-17T08:47:56.106Z,31.7197
2023-05-17T08:48:57.298Z,31.6388
2023-05-17T08:49:58.291Z,31.5633
2023-05-17T08:50:59.419Z,31.5829
2023-05-17T08:52:00.524Z,31.4670
2023-05-17T08:53:01.654Z,31.3612
2023-05-17T08:54:02.783Z,31.3475
2023-05-17T08:55:03.855Z,31.3080
2023-05-17T08:56:04.940Z,31.2128
2023-05-17T08:57:06.065Z,31.1593
2023-05-17T08:58:07.230Z,30.9587
2023-05-17T08:59:08.307Z,30.8533
2023-05-17T09:00:09.404Z,30.9003
2023-05-17T09:01:10.507Z,30.7319
2023-05-17T09:02:11.642Z,30.5139
2023-05-17T09:03:12.803Z,30.3951
2023-05-17T09:04:13.853Z,30.3970
2023-05-17T09:05:15.146Z,30.3093
2023-05-17T09:06:16.067Z,30.2861
2023-05-17T09:07:17.465Z,30.3268
2023-05-17T09:08:18.279Z,30.0584
2023-05-17T09:09:19.402Z,29.9391
2023-05-17T09:10:20.476Z,29.8865
2023-05-17T09:11:21.576Z,29.9778
2023-05-17T09:12:25.430Z,29.9063
2023-05-17T09:13:23.871Z,29.7901
2023-05-17T09:14:24.924Z,29.7392
2023-05-17T09:15:26.020Z,29.7748
2023-05-17T09:16:27.165Z,29.7653
2023-05-17T09:17:28.306Z,29.7981
2023-05-17T09:18:29.515Z,29.8078
2023-05-17T09:19:30.775Z,29.8313
2023-05-17T09:20:31.600Z,29.7948
2023-05-17T09:21:33.410Z,29.7863
2023-05-17T09:22:33.794Z,29.8218
2023-05-17T09:23:34.904Z,29.7990
2023-05-17T09:24:36.056Z,29.8163
2023-05-17T09:25:37.114Z,29.8831
2023-05-17T09:26:38.211Z,30.0050
2023-05-17T09:27:39.328Z,30.0419
2023-05-17T09:28:40.441Z,29.9939
2023-05-17T09:29:41.533Z,29.9979
2023-05-17T09:30:42.642Z,30.0766
2023-05-17T09:31:43.748Z,30.1697
2023-05-17T09:32:44.892Z,30.2497
2023-05-17T09:33:46.055Z,30.2446
2023-05-17T09:34:47.100Z,30.2364
2023-05-17T09:35:48.195Z,30.1404
2023-05-17T09:36:49.266Z,30.0730
2023-05-17T09:37:50.388Z,30.0035
2023-05-17T09:38:51.485Z,30.0289
2023-05-17T09:39:52.672Z,29.9701
2023-05-17T09:40:53.705Z,29.9855
2023-05-17T09:41:54.800Z,30.0172
2023-05-17T09:42:55.962Z,29.9532
2023-05-17T09:43:57.007Z,30.0048
2023-05-17T09:44:58.137Z,30.0236
2023-05-17T09:45:59.267Z,29.9660
2023-05-17T09:47:00.322Z,29.9001
2023-05-17T09:48:01.475Z,29.9547
2023-05-17T09:49:02.791Z,29.9880
2023-05-17T09:50:03.666Z,30.0294
2023-05-17T09:51:04.765Z,30.1044
2023-05-17T09:52:05.866Z,30.0933
2023-05-17T09:53:07.000Z,30.1363
2023-05-17T09:54:08.190Z,30.1344
2023-05-17T09:55:09.270Z,30.1128
2023-05-17T09:56:10.377Z,30.1116
2023-05-17T09:57:11.521Z,30.1163
2023-05-17T09:58:12.599Z,30.1587
2023-05-17T09:59:13.685Z,30.1270
2023-05-17T10:00:14.841Z,30.0785
2023-05-17T10:01:15.917Z,30.0353
2023-05-17T10:02:17.011Z,30.1012
2023-05-17T10:03:18.204Z,30.0879
2023-05-17T10:04:19.256Z,30.0680
2023-05-17T10:05:20.366Z,30.0362
2023-05-17T10:06:38.967Z,30.0439
2023-05-17T10:07:23.542Z,30.0240
2023-05-17T10:08:23.668Z,29.9798
2023-05-17T10:09:24.767Z,29.9750
2023-05-17T10:10:25.888Z,29.9119
2023-05-17T10:11:26.969Z,29.8747
2023-05-17T10:12:28.095Z,29.8117
2023-05-17T10:13:29.195Z,29.7556
2023-05-17T10:14:30.332Z,29.8045
2023-05-17T10:15:31.627Z,29.8566
2023-05-17T10:16:32.536Z,29.8630
2023-05-17T10:17:33.649Z,29.8361
2023-05-17T10:18:34.821Z,29.7901
2023-05-17T10:19:35.925Z,29.8112
2023-05-17T10:20:37.076Z,29.7325
2023-05-17T10:21:38.058Z,29.7025
2023-05-17T10:22:39.165Z,29.5829
2023-05-17T10:23:40.262Z,29.5682
2023-05-17T10:24:41.376Z,29.5048
2023-05-17T10:25:42.509Z,29.4545
2023-05-17T10:26:43.586Z,29.4723
2023-05-17T10:27:44.686Z,29.5096
2023-05-17T10:28:45.824Z,29.5798
2023-05-17T10:29:49.887Z,29.5962
2023-05-17T10:30:48.039Z,29.5957
2023-05-17T10:31:49.127Z,29.5882
2023-05-17T10:32:50.322Z,29.5314
2023-05-17T10:33:51.385Z,29.4461
2023-05-17T10:35:05.978Z,29.4077
2023-05-17T10:35:54.555Z,29.4282
2023-05-17T10:36:54.638Z,29.4096
2023-05-17T10:37:55.772Z,29.3767
2023-05-17T10:38:56.913Z,29.3224
2023-05-17T10:39:57.990Z,29.3012
2023-05-17T10:41:00.513Z,29.2958
2023-05-17T10:42:13.434Z,29.2482
2023-05-17T10:43:02.311Z,29.2099
2023-05-17T10:44:02.409Z,29.1631
2023-05-17T10:45:03.525Z,29.1290
2023-05-17T10:46:04.643Z,29.1241
2023-05-17T10:47:05.738Z,29.1171
2023-05-17T10:48:06.875Z,29.1456
2023-05-17T10:49:07.981Z,29.1672
2023-05-17T10:50:09.051Z,29.1646
2023-05-17T10:51:10.159Z,29.1670
2023-05-17T10:52:11.269Z,29.1005
2023-05-17T10:53:12.355Z,29.0360
2023-05-17T10:54:13.480Z,29.0294
2023-05-17T10:55:14.594Z,29.0660
2023-05-17T10:56:15.691Z,29.0612
2023-05-17T10:57:16.816Z,29.0586
2023-05-17T10:58:17.902Z,29.0585
2023-05-17T10:59:19.011Z,29.0695
2023-05-17T11:00:20.110Z,29.0864
2023-05-17T11:01:21.220Z,29.1054
2023-05-17T11:02:22.349Z,29.0723
2023-05-17T11:03:23.441Z,28.9888
2023-05-17T11:04:24.644Z,28.9285
2023-05-17T11:05:25.842Z,28.8505
2023-05-17T11:06:26.806Z,28.7684
2023-05-17T11:07:27.948Z,28.7313
2023-05-17T11:08:28.989Z,28.7072
2023-05-17T11:09:30.086Z,28.6980
2023-05-17T11:10:31.267Z,28.7157
2023-05-17T11:11:32.315Z,28.6955
2023-05-17T11:12:34.238Z,28.6716
2023-05-17T11:13:34.520Z,28.6208
2023-05-17T11:14:35.622Z,28.6522
2023-05-17T11:15:36.802Z,28.8834
2023-05-17T11:16:37.907Z,28.9962
2023-05-17T11:17:38.968Z,29.0141
2023-05-17T11:18:41.828Z,29.0192
2023-05-17T11:19:41.246Z,29.0250
2023-05-17T11:20:42.398Z,29.0230
2023-05-17T11:21:43.401Z,29.0106
2023-05-17T11:22:44.510Z,29.0000
2023-05-17T11:23:45.580Z,29.0251
2023-05-17T11:24:46.701Z,29.0921
2023-05-17T11:25:47.820Z,29.0937
2023-05-17T11:26:48.926Z,29.1492
2023-05-17T11:27:50.006Z,29.1061
2023-05-17T11:28:51.124Z,29.0614
2023-05-17T11:29:52.241Z,29.0116
2023-05-17T11:30:53.341Z,28.9800
2023-05-17T11:31:54.460Z,29.0194
2023-05-17T11:32:55.582Z,29.0361
2023-05-17T11:33:56.673Z,29.0580
2023-05-17T11:34:57.752Z,29.1105
2023-05-17T11:35:58.879Z,29.1587
2023-05-17T11:36:59.984Z,29.1715
2023-05-17T11:38:01.067Z,29.1337
2023-05-17T11:39:08.217Z,29.0840
2023-05-17T11:40:04.351Z,29.0564
2023-05-17T11:41:06.294Z,29.0375
2023-05-17T11:42:05.502Z,28.9745
2023-05-17T11:43:06.595Z,28.8857
2023-05-17T11:44:07.723Z,28.8359
2023-05-17T11:45:08.816Z,28.8183
2023-05-17T11:46:09.920Z,28.7581
2023-05-17T11:47:11.060Z,28.6821
2023-05-17T11:48:12.200Z,28.6123
2023-05-17T11:49:20.296Z,28.5606
2023-05-17T11:50:15.360Z,28.5018
2023-05-17T11:51:15.453Z,28.4816
2023-05-17T11:52:16.579Z,28.4638
2023-05-17T11:53:17.666Z,28.4804
2023-05-17T11:54:18.771Z,28.4693
2023-05-17T11:55:19.898Z,28.5165
2023-05-17T11:56:29.149Z,28.4854
2023-05-17T11:57:23.115Z,28.4261
2023-05-17T11:58:23.209Z,28.3919
2023-05-17T11:59:24.316Z,28.2887
2023-05-17T12:00:25.433Z,28.1808
2023-05-17T12:01:26.623Z,28.1220
2023-05-17T12:02:27.681Z,28.0967
2023-05-17T12:03:28.760Z,28.0731
2023-05-17T12:04:31.933Z,28.0795
2023-05-17T12:05:30.961Z,28.1096
2023-05-17T12:06:32.103Z,28.1274
2023-05-17T12:07:33.189Z,28.2217
2023-05-17T12:08:34.311Z,28.2352
2023-05-17T12:09:35.407Z,28.1664
2023-05-17T12:10:36.591Z,28.1247
2023-05-17T12:11:37.601Z,28.1318
2023-05-17T12:12:38.732Z,28.1639
2023-05-17T12:13:39.836Z,28.1489
2023-05-17T12:14:40.917Z,28.1492
2023-05-17T12:15:42.101Z,28.1737
2023-05-17T12:16:43.242Z,28.1801
2023-05-17T12:17:44.317Z,28.2205
2023-05-17T12:18:45.532Z,28.2421
2023-05-17T12:19:46.576Z,28.1837
2023-05-17T12:20:47.598Z,28.1288
2023-05-17T12:21:48.686Z,28.0798
2023-05-17T12:22:49.820Z,28.0857